createdAt,value
2023-03-29T00:01:01.172Z,10.10
2023-03-29T00:03:34.021Z,10.10
2023-03-29T00:06:03.957Z,10.10
2023-03-29T00:08:33.985Z,10.00
2023-03-29T00:11:02.535Z,10.00
2023-03-29T00:13:31.137Z,10.00
2023-03-29T00:15:59.320Z,10.00
2023-03-29T00:18:27.558Z,10.00
2023-03-29T00:20:57.943Z,10.00
2023-03-29T00:23:26.429Z,10.00
2023-03-29T00:25:54.985Z,10.00
2023-03-29T00:28:23.178Z,10.00
2023-03-29T00:30:51.503Z,10.00
2023-03-29T00:33:21.604Z,10.00
2023-03-29T00:35:50.586Z,10.00
2023-03-29T00:38:20.164Z,9.90
2023-03-29T00:40:48.560Z,9.90
2023-03-29T00:43:17.143Z,9.90
2023-03-29T00:45:45.525Z,9.90
2023-03-29T00:48:18.320Z,9.90
2023-03-29T00:50:50.397Z,9.80
2023-03-29T00:53:26.202Z,9.80
2023-03-29T00:55:58.323Z,9.70
2023-03-29T00:58:31.534Z,9.70
2023-03-29T01:01:03.352Z,9.70
2023-03-29T01:03:36.197Z,9.60
2023-03-29T01:06:07.694Z,9.60
2023-03-29T01:08:42.103Z,9.50
2023-03-29T01:11:15.983Z,9.50
2023-03-29T01:13:50.518Z,9.50
2023-03-29T01:16:22.088Z,9.50
2023-03-29T01:18:52.257Z,9.50
2023-03-29T01:21:29.335Z,9.50
2023-03-29T01:24:35.561Z,9.50
2023-03-29T01:27:11.386Z,9.50
2023-03-29T01:29:46.565Z,9.50
2023-03-29T01:32:18.666Z,9.50
2023-03-29T01:34:53.086Z,9.50
2023-03-29T01:37:26.579Z,9.50
2023-03-29T01:39:55.241Z,9.50
2023-03-29T01:42:35.302Z,9.50
2023-03-29T01:45:15.522Z,9.50
2023-03-29T01:47:49.452Z,9.40
2023-03-29T01:50:23.427Z,9.40
2023-03-29T01:52:56.458Z,9.40
2023-03-29T01:55:28.515Z,9.40
2023-03-29T01:57:57.651Z,9.40
2023-03-29T02:00:29.523Z,9.40
2023-03-29T02:03:01.715Z,9.40
2023-03-29T02:05:32.418Z,9.40
2023-03-29T02:08:02.797Z,9.40
2023-03-29T02:10:32.434Z,9.40
2023-03-29T02:13:01.469Z,9.40
2023-03-29T02:15:31.267Z,9.40
2023-03-29T02:17:59.555Z,9.30
2023-03-29T02:20:31.574Z,9.30
2023-03-29T02:23:03.271Z,9.30
2023-03-29T02:25:32.483Z,9.30
2023-03-29T02:28:01.911Z,9.30
2023-03-29T02:30:35.772Z,9.30
2023-03-29T02:33:10.766Z,9.30
2023-03-29T02:35:45.222Z,9.30
2023-03-29T02:38:14.726Z,9.30
2023-03-29T02:40:44.478Z,9.30
2023-03-29T02:43:14.054Z,9.30
2023-03-29T02:45:45.398Z,9.20
2023-03-29T02:48:17.349Z,9.20
2023-03-29T02:50:47.320Z,9.20
2023-03-29T02:53:18.899Z,9.20
2023-03-29T02:55:47.280Z,9.20
2023-03-29T02:58:15.878Z,9.20
2023-03-29T03:00:48.697Z,9.20
2023-03-29T03:03:17.167Z,9.20
2023-03-29T03:05:45.417Z,9.20
2023-03-29T03:08:14.118Z,9.30
2023-03-29T03:10:42.787Z,9.20
2023-03-29T03:13:11.492Z,9.20
2023-03-29T03:15:42.768Z,9.20
2023-03-29T03:18:12.781Z,9.20
2023-03-29T03:20:41.250Z,9.20
2023-03-29T03:23:10.741Z,9.10
2023-03-29T03:25:39.342Z,9.10
2023-03-29T03:28:07.671Z,9.10
2023-03-29T03:30:35.850Z,9.10
2023-03-29T03:33:04.046Z,9.10
2023-03-29T03:35:33.825Z,9.10
2023-03-29T03:38:02.079Z,9.10
2023-03-29T03:40:30.284Z,9.00
2023-03-29T03:42:58.464Z,9.00
2023-03-29T03:45:27.081Z,9.00
2023-03-29T03:47:55.356Z,9.00
2023-03-29T03:50:24.432Z,9.00
2023-03-29T03:52:54.046Z,9.00
2023-03-29T03:55:22.216Z,9.00
2023-03-29T03:57:50.487Z,9.00
2023-03-29T04:00:20.414Z,9.00
2023-03-29T04:02:49.299Z,9.00
2023-03-29T04:05:18.206Z,9.00
2023-03-29T04:07:46.512Z,9.00
2023-03-29T04:10:16.504Z,9.00
2023-03-29T04:12:44.686Z,9.00
2023-03-29T04:15:12.962Z,9.00
2023-03-29T04:17:41.375Z,9.00
2023-03-29T04:20:12.477Z,9.00
2023-03-29T04:22:41.352Z,9.10
2023-03-29T04:25:10.544Z,9.00
2023-03-29T04:27:41.038Z,9.10
2023-03-29T04:30:10.494Z,9.10
2023-03-29T04:32:38.952Z,9.10
2023-03-29T04:35:08.069Z,9.10
2023-03-29T04:37:36.914Z,9.10
2023-03-29T04:40:09.038Z,9.00
2023-03-29T04:42:37.537Z,9.00
2023-03-29T04:45:08.212Z,9.00
2023-03-29T04:47:36.646Z,9.00
2023-03-29T04:50:05.390Z,9.00
2023-03-29T04:52:34.069Z,9.00
2023-03-29T04:55:02.707Z,9.00
2023-03-29T04:57:31.387Z,9.00
2023-03-29T04:59:59.833Z,9.00
2023-03-29T05:02:32.265Z,9.00
2023-03-29T05:05:00.577Z,9.00
2023-03-29T05:07:28.744Z,9.10
2023-03-29T05:09:56.946Z,9.10
2023-03-29T05:12:25.185Z,9.10
2023-03-29T05:14:53.597Z,9.10
2023-03-29T05:17:21.974Z,9.10
2023-03-29T05:19:51.610Z,9.10
2023-03-29T05:22:20.237Z,9.10
2023-03-29T05:24:48.420Z,9.10
2023-03-29T05:27:17.193Z,9.10
2023-03-29T05:29:45.768Z,9.10
2023-03-29T05:32:14.950Z,9.20
2023-03-29T05:34:43.472Z,9.20
2023-03-29T05:37:13.570Z,9.20
2023-03-29T05:39:43.038Z,9.20
2023-03-29T05:42:12.447Z,9.20
2023-03-29T05:44:40.840Z,9.20
2023-03-29T05:47:09.061Z,9.20
2023-03-29T05:49:38.128Z,9.20
2023-03-29T05:52:06.778Z,9.30
2023-03-29T05:54:36.342Z,9.20
2023-03-29T05:57:04.714Z,9.20
2023-03-29T05:59:33.849Z,9.20
2023-03-29T06:02:04.900Z,9.30
2023-03-29T06:04:33.863Z,9.30
2023-03-29T06:07:02.626Z,9.30
2023-03-29T06:09:32.170Z,9.30
2023-03-29T06:12:01.915Z,9.30
2023-03-29T06:14:30.267Z,9.30
2023-03-29T06:16:58.499Z,9.30
2023-03-29T06:19:26.893Z,9.40
2023-03-29T06:21:55.250Z,9.40
2023-03-29T06:24:24.985Z,9.40
2023-03-29T06:26:53.755Z,9.40
2023-03-29T06:29:23.353Z,9.50
2023-03-29T06:31:51.765Z,9.50
2023-03-29T06:34:21.039Z,9.50
2023-03-29T06:36:50.981Z,9.50
2023-03-29T06:39:19.176Z,9.60
2023-03-29T06:41:47.399Z,9.60
2023-03-29T06:44:17.409Z,9.60
2023-03-29T06:46:47.093Z,9.70
2023-03-29T06:49:15.328Z,9.70
2023-03-29T06:51:43.485Z,9.70
2023-03-29T06:54:11.781Z,9.80
2023-03-29T06:56:40.281Z,9.80
2023-03-29T06:59:08.558Z,9.80
2023-03-29T07:01:37.448Z,9.90
2023-03-29T07:04:09.426Z,9.90
2023-03-29T07:06:39.110Z,9.90
2023-03-29T07:09:07.922Z,10.00
2023-03-29T07:11:36.426Z,10.00
2023-03-29T07:14:04.684Z,10.10
2023-03-29T07:16:33.749Z,10.10
2023-03-29T07:19:03.751Z,10.10
2023-03-29T07:21:35.409Z,10.10
2023-03-29T07:24:06.857Z,10.20
2023-03-29T07:26:35.191Z,10.30
2023-03-29T07:29:03.344Z,10.30
2023-03-29T07:31:32.973Z,10.30
2023-03-29T07:34:03.245Z,10.40
2023-03-29T07:36:34.391Z,10.40
2023-03-29T07:39:03.815Z,10.50
2023-03-29T07:41:31.983Z,10.50
2023-03-29T07:44:04.943Z,10.50
2023-03-29T07:46:33.106Z,10.50
2023-03-29T07:49:01.929Z,10.60
2023-03-29T07:51:30.527Z,10.60
2023-03-29T07:54:00.169Z,10.60
2023-03-29T07:56:28.338Z,10.60
2023-03-29T07:58:57.261Z,10.70
2023-03-29T08:01:26.056Z,10.70
2023-03-29T08:03:54.459Z,10.80
2023-03-29T08:06:22.691Z,10.80
2023-03-29T08:08:51.682Z,10.80
2023-03-29T08:11:21.237Z,10.80
2023-03-29T08:13:49.403Z,10.80
2023-03-29T08:16:17.605Z,10.80
2023-03-29T08:18:45.854Z,10.90
2023-03-29T08:21:15.904Z,10.90
2023-03-29T08:23:44.100Z,10.90
2023-03-29T08:26:12.430Z,11.00
2023-03-29T08:28:42.303Z,11.00
2023-03-29T08:31:11.190Z,11.10
2023-03-29T08:33:39.455Z,11.10
2023-03-29T08:36:08.446Z,11.20
2023-03-29T08:38:36.800Z,11.20
2023-03-29T08:41:23.686Z,11.30
2023-03-29T08:44:13.156Z,11.30
2023-03-29T08:46:49.392Z,11.40
2023-03-29T08:49:18.810Z,11.50
2023-03-29T08:51:49.329Z,11.50
2023-03-29T08:54:24.978Z,11.60
2023-03-29T08:56:55.008Z,11.60
2023-03-29T08:59:29.775Z,11.70
2023-03-29T09:02:00.854Z,11.70
2023-03-29T09:04:31.857Z,11.80
2023-03-29T09:07:00.176Z,11.90
2023-03-29T09:09:33.831Z,11.90
2023-03-29T09:12:14.262Z,11.90
2023-03-29T09:15:08.558Z,11.90
2023-03-29T09:17:49.801Z,11.90
2023-03-29T09:20:28.418Z,12.00
2023-03-29T09:23:08.857Z,12.00
2023-03-29T09:25:53.363Z,12.00
2023-03-29T09:28:28.901Z,12.00
2023-03-29T09:31:05.175Z,12.00
2023-03-29T09:33:42.913Z,12.00
2023-03-29T09:36:16.412Z,12.00
2023-03-29T09:38:48.205Z,12.00
2023-03-29T09:41:24.633Z,12.00
2023-03-29T09:43:55.789Z,12.00
2023-03-29T09:46:28.424Z,12.00
2023-03-29T09:48:57.739Z,12.00
2023-03-29T09:51:31.012Z,12.00
2023-03-29T09:54:00.695Z,12.10
2023-03-29T09:56:30.163Z,12.10
2023-03-29T09:58:58.514Z,12.10
2023-03-29T10:01:38.666Z,12.20
2023-03-29T10:04:09.780Z,12.20
2023-03-29T10:06:39.105Z,12.30
2023-03-29T10:09:17.142Z,12.40
2023-03-29T10:11:49.086Z,12.50
2023-03-29T10:14:18.760Z,12.60
2023-03-29T10:16:55.740Z,12.70
2023-03-29T10:19:28.185Z,12.80
2023-03-29T10:21:59.734Z,12.90
2023-03-29T10:24:28.866Z,13.00
2023-03-29T10:27:00.526Z,13.10
2023-03-29T10:29:36.339Z,13.20
2023-03-29T10:32:16.439Z,13.20
2023-03-29T10:34:47.580Z,13.30
2023-03-29T10:37:19.262Z,13.40
2023-03-29T10:39:48.511Z,13.40
2023-03-29T10:42:19.565Z,13.40
2023-03-29T10:44:55.398Z,13.50
2023-03-29T10:47:25.757Z,13.60
2023-03-29T10:49:57.261Z,13.70
2023-03-29T10:52:26.736Z,13.70
2023-03-29T10:54:57.073Z,13.80
2023-03-29T10:57:34.938Z,13.80
2023-03-29T11:00:07.427Z,13.90
2023-03-29T11:03:35.443Z,14.00
2023-03-29T11:06:14.190Z,14.10
2023-03-29T11:08:53.765Z,14.20
2023-03-29T11:11:44.121Z,14.30
2023-03-29T11:14:20.524Z,14.30
2023-03-29T11:16:58.595Z,14.50
2023-03-29T11:19:57.757Z,14.50
2023-03-29T11:22:35.405Z,14.60
2023-03-29T11:25:29.114Z,14.70
2023-03-29T11:28:03.763Z,14.70
2023-03-29T11:30:39.131Z,14.70
2023-03-29T11:33:17.997Z,14.70
2023-03-29T11:35:56.313Z,14.80
2023-03-29T11:38:30.547Z,14.80
2023-03-29T11:41:04.922Z,14.80
2023-03-29T11:43:37.170Z,14.90
2023-03-29T11:46:13.021Z,14.90
2023-03-29T11:48:46.176Z,14.90
2023-03-29T11:51:23.461Z,15.00
2023-03-29T11:54:00.645Z,15.00
2023-03-29T11:56:34.487Z,15.00
2023-03-29T11:59:11.559Z,15.10
2023-03-29T12:01:47.557Z,15.10
2023-03-29T12:04:23.094Z,15.10
2023-03-29T12:07:03.806Z,15.20
2023-03-29T12:09:37.707Z,15.20
2023-03-29T12:12:11.809Z,15.20
2023-03-29T12:14:50.953Z,15.30
2023-03-29T12:17:24.401Z,15.30
2023-03-29T12:20:02.174Z,15.30
2023-03-29T12:22:32.806Z,15.40
2023-03-29T12:25:03.715Z,15.40
2023-03-29T12:27:35.838Z,15.50
2023-03-29T12:30:38.613Z,15.60
2023-03-29T12:33:35.031Z,15.60
2023-03-29T12:36:20.433Z,15.70
2023-03-29T12:38:53.286Z,15.70
2023-03-29T12:41:24.237Z,15.80
2023-03-29T12:43:52.742Z,15.70
2023-03-29T12:46:25.834Z,15.80
2023-03-29T12:48:58.224Z,15.70
2023-03-29T12:51:33.028Z,15.70
2023-03-29T12:54:08.485Z,15.70
2023-03-29T12:56:41.722Z,15.70
2023-03-29T12:59:26.281Z,15.70
2023-03-29T13:02:00.727Z,15.80
2023-03-29T13:04:49.552Z,15.80
2023-03-29T13:07:30.848Z,15.80
2023-03-29T13:10:01.534Z,15.90
2023-03-29T13:12:36.929Z,15.90
2023-03-29T13:15:09.424Z,15.90
2023-03-29T13:17:46.951Z,15.90
2023-03-29T13:20:29.515Z,16.00
2023-03-29T13:23:10.647Z,16.00
2023-03-29T13:25:53.446Z,16.00
2023-03-29T13:28:29.705Z,16.10
2023-03-29T13:31:01.834Z,16.10
2023-03-29T13:33:54.104Z,16.10
2023-03-29T13:36:29.345Z,16.10
2023-03-29T13:39:03.513Z,16.20
2023-03-29T13:41:47.272Z,16.20
2023-03-29T13:44:30.221Z,16.20
2023-03-29T13:47:12.715Z,16.10
2023-03-29T13:49:45.437Z,16.10
2023-03-29T13:52:17.210Z,16.10
2023-03-29T13:54:52.046Z,16.00
2023-03-29T13:57:26.393Z,16.00
2023-03-29T14:00:00.706Z,16.00
2023-03-29T14:02:42.125Z,16.00
2023-03-29T14:05:14.076Z,16.10
2023-03-29T14:07:45.146Z,16.00
2023-03-29T14:10:16.238Z,16.10
2023-03-29T14:12:47.264Z,16.10
2023-03-29T14:15:24.769Z,16.00
2023-03-29T14:18:00.369Z,16.10
2023-03-29T14:20:30.438Z,16.00
2023-03-29T14:22:58.664Z,16.10
2023-03-29T14:25:27.825Z,16.10
2023-03-29T14:27:57.545Z,16.10
2023-03-29T14:30:29.323Z,16.10
2023-03-29T14:32:57.631Z,16.20
2023-03-29T14:35:33.233Z,16.20
2023-03-29T14:38:03.696Z,16.30
2023-03-29T14:40:32.638Z,16.30
2023-03-29T14:43:08.136Z,16.40
2023-03-29T14:45:37.130Z,16.50
2023-03-29T14:48:06.360Z,16.50
2023-03-29T14:50:35.077Z,16.60
2023-03-29T14:53:04.021Z,16.70
2023-03-29T14:55:32.862Z,16.70
2023-03-29T14:58:02.776Z,16.70
2023-03-29T15:00:35.076Z,16.80
2023-03-29T15:03:04.148Z,16.80
2023-03-29T15:05:37.404Z,16.80
2023-03-29T15:08:07.476Z,16.80
2023-03-29T15:10:36.790Z,16.80
2023-03-29T15:13:08.356Z,16.90
2023-03-29T15:15:39.153Z,16.80
2023-03-29T15:18:09.577Z,16.90
2023-03-29T15:20:40.138Z,16.90
2023-03-29T15:23:21.948Z,16.90
2023-03-29T15:25:55.057Z,16.90
2023-03-29T15:28:28.733Z,16.90
2023-03-29T15:33:36.382Z,16.90
2023-03-29T15:36:07.186Z,16.80
2023-03-29T15:38:43.087Z,16.90
2023-03-29T15:41:13.633Z,16.80
2023-03-29T15:43:43.524Z,16.80
2023-03-29T15:46:14.056Z,16.80
2023-03-29T15:48:42.618Z,16.80
2023-03-29T15:51:12.716Z,16.70
2023-03-29T15:53:41.855Z,16.80
2023-03-29T15:56:12.374Z,16.80
2023-03-29T15:58:40.726Z,16.80
2023-03-29T16:01:23.586Z,16.70
2023-03-29T16:03:51.975Z,16.80
2023-03-29T16:06:22.301Z,16.80
2023-03-29T16:08:50.565Z,16.70
2023-03-29T16:11:18.768Z,16.70
2023-03-29T16:13:47.036Z,16.80
2023-03-29T16:16:16.959Z,16.70
2023-03-29T16:18:45.192Z,16.70
2023-03-29T16:21:15.989Z,16.70
2023-03-29T16:23:44.205Z,16.80
2023-03-29T16:26:13.990Z,16.80
2023-03-29T16:28:42.262Z,16.70
2023-03-29T16:31:12.734Z,16.70
2023-03-29T16:33:42.738Z,16.70
2023-03-29T16:36:12.477Z,16.70
2023-03-29T16:38:40.788Z,16.70
2023-03-29T16:41:09.054Z,16.70
2023-03-29T16:43:38.697Z,16.70
2023-03-29T16:46:08.979Z,16.60
2023-03-29T16:48:37.422Z,16.60
2023-03-29T16:51:08.104Z,16.50
2023-03-29T16:53:36.366Z,16.50
2023-03-29T16:56:05.546Z,16.50
2023-03-29T16:58:33.879Z,16.50
2023-03-29T17:01:10.254Z,16.50
2023-03-29T17:03:38.751Z,16.40
2023-03-29T17:06:09.765Z,16.40
2023-03-29T17:08:38.685Z,16.40
2023-03-29T17:11:07.633Z,16.40
2023-03-29T17:13:37.440Z,16.30
2023-03-29T17:16:06.585Z,16.30
2023-03-29T17:18:35.148Z,16.30
2023-03-29T17:21:03.302Z,16.30
2023-03-29T17:23:32.986Z,16.20
2023-03-29T17:26:01.941Z,16.20
2023-03-29T17:28:30.700Z,16.20
2023-03-29T17:30:58.918Z,16.20
2023-03-29T17:33:27.144Z,16.20
2023-03-29T17:35:56.053Z,16.20
2023-03-29T17:38:24.340Z,16.20
2023-03-29T17:40:56.785Z,16.20
2023-03-29T17:43:25.064Z,16.10
2023-03-29T17:45:53.949Z,16.10
2023-03-29T17:48:22.357Z,16.10
2023-03-29T17:50:50.687Z,16.10
2023-03-29T17:53:18.954Z,16.10
2023-03-29T17:55:47.111Z,16.10
2023-03-29T17:58:16.708Z,16.00
2023-03-29T18:00:44.995Z,16.00
2023-03-29T18:03:13.310Z,16.00
2023-03-29T18:05:41.778Z,16.00
2023-03-29T18:08:10.075Z,16.00
2023-03-29T18:10:38.261Z,15.90
2023-03-29T18:13:06.792Z,15.90
2023-03-29T18:15:36.415Z,15.90
2023-03-29T18:18:04.826Z,15.90
2023-03-29T18:20:33.016Z,15.90
2023-03-29T18:23:01.198Z,15.90
2023-03-29T18:25:29.503Z,15.80
2023-03-29T18:27:57.711Z,15.80
2023-03-29T18:30:25.944Z,15.80
2023-03-29T18:32:55.646Z,15.80
2023-03-29T18:35:23.930Z,15.80
2023-03-29T18:37:52.697Z,15.80
2023-03-29T18:40:24.639Z,15.80
2023-03-29T18:42:53.251Z,15.70
2023-03-29T18:45:21.516Z,15.70
2023-03-29T18:47:50.671Z,15.70
2023-03-29T18:50:20.502Z,15.70
2023-03-29T18:52:48.755Z,15.70
2023-03-29T18:55:17.317Z,15.70
2023-03-29T18:57:45.655Z,15.70
2023-03-29T19:00:14.249Z,15.70
2023-03-29T19:02:43.133Z,15.80
2023-03-29T19:05:11.572Z,15.80
2023-03-29T19:07:41.439Z,15.80
2023-03-29T19:10:10.192Z,15.80
2023-03-29T19:12:38.366Z,15.80
2023-03-29T19:15:08.037Z,15.80
2023-03-29T19:17:36.314Z,15.80
2023-03-29T19:20:09.899Z,15.80
2023-03-29T19:22:38.169Z,15.70
2023-03-29T19:25:09.511Z,15.80
2023-03-29T19:27:37.810Z,15.80
2023-03-29T19:30:07.513Z,15.80
2023-03-29T19:32:36.043Z,15.70
2023-03-29T19:35:04.448Z,15.80
2023-03-29T19:37:32.629Z,15.70
2023-03-29T19:40:00.889Z,15.70
2023-03-29T19:42:30.474Z,15.70
2023-03-29T19:44:58.635Z,15.70
2023-03-29T19:47:27.084Z,15.90
2023-03-29T19:49:55.260Z,16.20
2023-03-29T19:52:24.023Z,16.40
2023-03-29T19:54:52.275Z,16.60
2023-03-29T19:57:20.502Z,16.90
2023-03-29T19:59:50.162Z,17.10
2023-03-29T20:02:18.438Z,17.20
2023-03-29T20:04:46.780Z,17.40
2023-03-29T20:07:14.984Z,17.50
2023-03-29T20:09:45.381Z,17.50
2023-03-29T20:12:13.670Z,17.50
2023-03-29T20:14:43.223Z,17.40
2023-03-29T20:17:13.659Z,17.20
2023-03-29T20:19:44.057Z,17.10
2023-03-29T20:22:12.584Z,17.00
2023-03-29T20:24:41.098Z,16.80
2023-03-29T20:27:09.631Z,16.70
2023-03-29T20:29:38.203Z,16.60
2023-03-29T20:32:06.709Z,16.50
2023-03-29T20:34:36.978Z,16.40
2023-03-29T20:37:05.813Z,16.30
2023-03-29T20:39:34.006Z,16.20
2023-03-29T20:42:02.135Z,16.10
2023-03-29T20:44:31.971Z,16.00
2023-03-29T20:47:06.377Z,15.90
2023-03-29T20:49:38.283Z,15.80
2023-03-29T20:52:08.344Z,15.80
2023-03-29T20:54:37.287Z,15.70
2023-03-29T20:57:06.836Z,15.70
2023-03-29T20:59:37.980Z,15.60
2023-03-29T21:02:06.536Z,15.50
2023-03-29T21:04:35.102Z,15.50
2023-03-29T21:07:05.167Z,15.40
2023-03-29T21:09:34.811Z,15.40
2023-03-29T21:12:03.326Z,15.30
2023-03-29T21:14:33.107Z,15.30
2023-03-29T21:17:01.497Z,15.30
2023-03-29T21:19:29.874Z,15.30
2023-03-29T21:21:58.132Z,15.20
2023-03-29T21:24:27.743Z,15.20
2023-03-29T21:26:55.881Z,15.20
2023-03-29T21:29:24.202Z,15.20
2023-03-29T21:31:52.436Z,15.20
2023-03-29T21:34:20.675Z,15.10
2023-03-29T21:36:48.972Z,15.10
2023-03-29T21:39:18.361Z,15.10
2023-03-29T21:41:47.964Z,15.10
2023-03-29T21:44:16.157Z,15.10
2023-03-29T21:46:44.378Z,15.10
2023-03-29T21:49:12.785Z,15.10
2023-03-29T21:51:40.962Z,15.10
2023-03-29T21:54:10.166Z,15.00
2023-03-29T21:56:38.357Z,15.00
2023-03-29T21:59:07.886Z,15.10
2023-03-29T22:01:36.311Z,15.00
2023-03-29T22:04:04.896Z,15.00
2023-03-29T22:06:33.082Z,15.00
2023-03-29T22:09:03.141Z,15.00
2023-03-29T22:11:34.652Z,15.00
2023-03-29T22:14:04.123Z,15.00
2023-03-29T22:16:33.727Z,15.00
2023-03-29T22:19:01.978Z,14.90
2023-03-29T22:21:31.943Z,14.90
2023-03-29T22:24:01.878Z,14.90
2023-03-29T22:26:32.184Z,14.90
2023-03-29T22:29:01.500Z,14.80
2023-03-29T22:31:30.965Z,14.80
2023-03-29T22:34:02.721Z,14.80
2023-03-29T22:36:32.418Z,14.80
2023-03-29T22:39:00.762Z,14.80
2023-03-29T22:41:29.084Z,14.80
2023-03-29T22:44:01.004Z,14.70
2023-03-29T22:46:29.211Z,14.70
2023-03-29T22:48:57.576Z,14.70
2023-03-29T22:51:27.320Z,14.70
2023-03-29T22:53:55.752Z,14.70
2023-03-29T22:56:24.828Z,14.70
2023-03-29T22:58:53.352Z,14.60
2023-03-29T23:01:21.571Z,14.60
2023-03-29T23:03:49.797Z,14.60
2023-03-29T23:06:17.959Z,14.60
2023-03-29T23:08:47.522Z,14.60
2023-03-29T23:11:15.717Z,14.60
2023-03-29T23:13:43.891Z,14.60
2023-03-29T23:16:12.173Z,14.50
2023-03-29T23:18:40.360Z,14.50
2023-03-29T23:21:10.521Z,14.50
2023-03-29T23:23:38.772Z,14.50
2023-03-29T23:26:10.521Z,14.50
2023-03-29T23:28:39.014Z,14.50
2023-03-29T23:31:10.591Z,14.50
2023-03-29T23:33:41.130Z,14.50
2023-03-29T23:36:11.344Z,14.40
2023-03-29T23:38:40.514Z,14.40
2023-03-29T23:41:12.887Z,14.40
2023-03-29T23:43:42.959Z,14.30
2023-03-29T23:46:13.152Z,14.40
2023-03-29T23:48:44.638Z,14.40
2023-03-29T23:51:13.038Z,14.40
2023-03-29T23:53:41.252Z,14.40
2023-03-29T23:56:10.892Z,14.40
2023-03-29T23:58:39.643Z,14.30
